Seabourn Odyssey — C6XC6 — position and weather

sailwx.info

Track history (hours):
 
Tides and Currents Weather Stations Pressure Air Temp Water Temp Dewpoint Dewpoint Depression Visibility Wind Speed Wind Dir Waves Ship Positions

Seabourn Odyssey

Last reported at 2019-Oct-18 16:47 UTC. Time now 2019-Oct-18 23:21 UTC.
Position N 39°33' W 000°06'.

Length 198 m; draft 6.7 m.

Type: Ship. MMSI: 309416000.

Date/timePositionNaut miles runAvg speedWind from/ knotsBaromVisibWave heightAir tempDewpointWater temp
2019-Oct-18 16:47N 39°33' W 000°06'414.5
2019-Oct-18 16:29N 39°29' W 000°10'811.5
2019-Oct-18 15:49N 39°27' W 000°19'1 2.4
2019-Oct-18 15:26N 39°27' W 000°20'0 0.0
2019-Oct-18 14:56N 39°27' W 000°20'0 0.0
2019-Oct-18 13:52N 39°27' W 000°20'0 0.0
2019-Oct-18 13:28N 39°27' W 000°20'0 0.0
2019-Oct-18 12:46N 39°27' W 000°20'0 0.0
2019-Oct-18 12:24N 39°27' W 000°20'0 0.0
2019-Oct-18 12:00N 39°27' W 000°20'0 0.0
2019-Oct-18 11:30N 39°27' W 000°20'0 0.0
2019-Oct-18 11:00N 39°27' W 000°20'0 0.0
2019-Oct-18 10:30N 39°27' W 000°20'0 0.0
2019-Oct-18 10:00N 39°27' W 000°20'0 0.0
2019-Oct-18 09:22N 39°27' W 000°20'0 0.0
2019-Oct-18 08:56N 39°27' W 000°20'0 0.0
2019-Oct-18 07:52N 39°27' W 000°20'0 0.0
2019-Oct-18 07:24N 39°27' W 000°20'0 0.0
2019-Oct-18 06:38N 39°27' W 000°20'0 0.0
2019-Oct-18 06:31N 39°27' W 000°20'0 0.0
2019-Oct-18 05:58N 39°27' W 000°20'0 0.0
2019-Oct-18 05:27N 39°27' W 000°20'0 0.0
2019-Oct-18 04:40N 39°27' W 000°20'0 0.5
2019-Oct-18 04:30N 39°27' W 000°19'3 5.7
2019-Oct-18 03:58N 39°25' W 000°17'12213.9
2019-Oct-17 19:08N 39°24' E 002°21'214.3
2019-Oct-17 18:59N 39°24' E 002°24'613.3
2019-Oct-17 18:30N 39°26' E 002°32'713.9
2019-Oct-17 18:00N 39°31' E 002°38'2 4.0
2019-Oct-17 17:30N 39°33' E 002°38'0 0.0
2019-Oct-17 16:59N 39°33' E 002°38'0 0.0
2019-Oct-17 16:28N 39°33' E 002°38'0 0.0
2019-Oct-17 15:55N 39°33' E 002°38'0 0.0
2019-Oct-17 15:28N 39°33' E 002°38'0 0.0
2019-Oct-17 14:58N 39°33' E 002°38'0 0.0
2019-Oct-17 14:30N 39°33' E 002°38'0 0.0
2019-Oct-17 14:00N 39°33' E 002°38'0 0.0
2019-Oct-17 13:30N 39°33' E 002°38'0 0.0
2019-Oct-17 13:00N 39°33' E 002°38'0 0.0
2019-Oct-17 12:30N 39°33' E 002°38'0 0.0
2019-Oct-17 12:00N 39°33' E 002°38'0 0.0
2019-Oct-17 11:29N 39°33' E 002°38'0 0.0
2019-Oct-17 10:59N 39°33' E 002°38'0 0.0
2019-Oct-17 10:30N 39°33' E 002°38'0 0.0
2019-Oct-17 10:00N 39°33' E 002°38'0 0.0
2019-Oct-17 09:30N 39°33' E 002°38'0 0.0
2019-Oct-17 09:00N 39°33' E 002°38'0 0.0
2019-Oct-17 08:30N 39°33' E 002°38'0 0.0
2019-Oct-17 08:00N 39°33' E 002°38'0 0.0
2019-Oct-17 07:30N 39°33' E 002°38'0 0.0
2019-Oct-17 07:00N 39°33' E 002°38'0 0.0
2019-Oct-17 06:29N 39°33' E 002°38'0 0.0
2019-Oct-17 05:59N 39°33' E 002°38'0 0.0
2019-Oct-17 05:29N 39°33' E 002°38'0 0.4
2019-Oct-17 05:00N 39°33' E 002°38'1 2.5
2019-Oct-17 04:30N 39°32' E 002°39'4 8.5
2019-Oct-17 04:00N 39°28' E 002°35'4 8.7
2019-Oct-17 03:30N 39°25' E 002°32'510.2
2019-Oct-17 03:00N 39°27' E 002°26'11113.7
2019-Oct-16 18:55N 41°15' E 002°54'613.5
2019-Oct-16 18:27N 41°21' E 002°56'713.5
2019-Oct-16 17:56N 41°28' E 002°59'1113.1
2019-Oct-16 17:04N 41°39' E 003°03'212.5
2019-Oct-16 16:55N 41°41' E 003°03'153 6.2
2019-Oct-15 16:11N 43°05' E 005°56'1 7.1
2019-Oct-15 16:00N 43°06' E 005°55'1 0.1
2019-Oct-15 06:18N 43°07' E 005°56'0 0.0
2019-Oct-15 05:51N 43°07' E 005°56'0 0.9
2019-Oct-15 05:30N 43°07' E 005°56'1 2.7
2019-Oct-15 04:58N 43°05' E 005°56'6914.2
2019-Oct-15 00:08N 42°24' E 007°11'215.1
2019-Oct-15 00:00N 42°24' E 007°14'715.1
2019-Oct-14 23:31N 42°20' E 007°22'815.1
2019-Oct-14 23:01N 42°16' E 007°31'510.4
2019-Oct-14 22:30N 42°14' E 007°38'4 8.7
2019-Oct-14 22:00N 42°12' E 007°43'4 8.3
2019-Oct-14 21:30N 42°09' E 007°47'4 8.0
2019-Oct-14 21:00N 42°07' E 007°51'611.1
2019-Oct-14 20:30N 42°04' E 007°58'714.4
2019-Oct-14 20:00N 42°00' E 008°06'2414.1
2019-Oct-14 18:19N 41°49' E 008°34'34 2.2
2019-Oct-14 02:31N 42°23' E 008°27'314.4
2019-Oct-14 02:19N 42°26' E 008°27'614.2
2019-Oct-14 01:52N 42°32' E 008°32'514.0
2019-Oct-14 01:30N 42°36' E 008°36'713.8
2019-Oct-14 01:00N 42°42' E 008°41'714.0
2019-Oct-14 00:29N 42°48' E 008°46'814.2
2019-Oct-13 23:55N 42°54' E 008°52'614.1
2019-Oct-13 23:28N 42°59' E 008°58'714.2
2019-Oct-13 22:59N 43°05' E 009°03'1411.3
2019-Oct-13 21:42N 43°15' E 009°17'2 8.0
2019-Oct-13 21:30N 43°16' E 009°19'4 7.9
2019-Oct-13 21:00N 43°18' E 009°23'4 8.0
2019-Oct-13 20:30N 43°21' E 009°28'4 8.1
2019-Oct-13 20:00N 43°23' E 009°32'612.6
2019-Oct-13 19:30N 43°27' E 009°39'714.4
2019-Oct-13 19:00N 43°31' E 009°48'714.2
2019-Oct-13 18:30N 43°31' E 009°57'714.6
2019-Oct-13 18:00N 43°31' E 010°07'612.5
2019-Oct-13 17:30N 43°32' E 010°16'2 3.1
2019-Oct-13 16:58N 43°33' E 010°18'0 0.0
2019-Oct-13 16:27N 43°33' E 010°18'0 0.0
2019-Oct-13 15:59N 43°33' E 010°18'0 0.0
2019-Oct-13 15:29N 43°33' E 010°18'0 0.0
2019-Oct-13 14:59N 43°33' E 010°18'0 0.0
2019-Oct-13 14:29N 43°33' E 010°18'0 0.0
2019-Oct-13 13:59N 43°33' E 010°18'0 0.0
2019-Oct-13 12:46N 43°33' E 010°18'0 0.0
2019-Oct-13 12:30N 43°33' E 010°18'0 0.0
2019-Oct-13 12:00N 43°33' E 010°18'0 0.0
2019-Oct-13 11:31N 43°33' E 010°18'0 0.0
2019-Oct-13 10:58N 43°33' E 010°18'0 0.0
2019-Oct-13 10:28N 43°33' E 010°18'0 0.0
2019-Oct-13 09:58N 43°33' E 010°18'0 0.0
2019-Oct-13 09:28N 43°33' E 010°18'0 0.0
2019-Oct-13 08:58N 43°33' E 010°18'0 0.0
2019-Oct-13 08:30N 43°33' E 010°18'0 0.0
2019-Oct-13 07:59N 43°33' E 010°18'0 0.0
2019-Oct-13 07:28N 43°33' E 010°18'0 0.0
2019-Oct-13 06:58N 43°33' E 010°18'0 0.0
2019-Oct-13 06:28N 43°33' E 010°18'0 0.0
2019-Oct-13 05:58N 43°33' E 010°18'0 0.0
2019-Oct-13 05:30N 43°33' E 010°18'0 0.0
2019-Oct-13 04:59N 43°33' E 010°18'0 0.0
2019-Oct-13 04:29N 43°33' E 010°18'0 0.3
2019-Oct-13 03:59N 43°33' E 010°18'2 4.4
2019-Oct-13 03:30N 43°31' E 010°16'611.6
2019-Oct-13 03:00N 43°26' E 010°12'815.4
2019-Oct-13 02:30N 43°19' E 010°16'815.4
2019-Oct-13 02:00N 43°12' E 010°19'4511.2
2019-Oct-12 21:58N 42°29' E 010°39'6 8.1
2019-Oct-12 21:12N 42°23' E 010°42'2 8.0
2019-Oct-12 21:00N 42°21' E 010°42'178 6.6
2019-Oct-11 17:53N 40°38' E 013°56'614.1
2019-Oct-11 17:29N 40°38' E 014°03'713.9
2019-Oct-11 17:00N 40°42' E 014°10'714.3
2019-Oct-11 16:30N 40°48' E 014°16'3 5.3
2019-Oct-11 16:00N 40°50' E 014°15'0 0.2
2019-Oct-11 15:29N 40°50' E 014°15'0 0.0
2019-Oct-11 14:59N 40°50' E 014°15'0 0.0
2019-Oct-11 14:29N 40°50' E 014°15'0 0.0
2019-Oct-11 13:59N 40°50' E 014°15'0 0.0
2019-Oct-11 13:29N 40°50' E 014°15'0 0.0
2019-Oct-11 12:59N 40°50' E 014°15'0 0.0
2019-Oct-11 12:29N 40°50' E 014°15'0 0.0
2019-Oct-11 11:59N 40°50' E 014°15'0 0.0
2019-Oct-11 11:29N 40°50' E 014°15'0 0.0
2019-Oct-11 10:59N 40°50' E 014°15'0 0.0
2019-Oct-11 10:26N 40°50' E 014°15'0 0.0
2019-Oct-11 09:59N 40°50' E 014°15'0 0.0
2019-Oct-11 09:29N 40°50' E 014°15'0 0.0
2019-Oct-11 08:59N 40°50' E 014°15'0 0.0
2019-Oct-11 08:29N 40°50' E 014°15'0 0.0
2019-Oct-11 07:59N 40°50' E 014°15'0 0.0
2019-Oct-11 07:29N 40°50' E 014°15'0 0.0
2019-Oct-11 06:59N 40°50' E 014°15'0 0.0
2019-Oct-11 06:20N 40°50' E 014°15'0 0.0
2019-Oct-11 05:59N 40°50' E 014°15'0 0.0
2019-Oct-11 05:29N 40°50' E 014°15'0 0.0
2019-Oct-11 04:59N 40°50' E 014°15'0 0.0
2019-Oct-11 04:31N 40°50' E 014°15'1 2.9
2019-Oct-11 04:01N 40°50' E 014°17'612.0
2019-Oct-11 03:30N 40°44' E 014°14'714.8
2019-Oct-11 03:00N 40°37' E 014°09'714.7
2019-Oct-11 02:30N 40°31' E 014°05'14614.4
2019-Oct-10 16:23N 38°22' E 012°36'  
Track history (hours):
 
Tides and Currents Weather Stations Pressure Air Temp Water Temp Dewpoint Dewpoint Depression Visibility Wind Speed Wind Dir Waves Ship Positions

Seabourn Odyssey

Last reported at 2019-Oct-18 16:47 UTC. Time now 2019-Oct-18 23:21 UTC.
Position N 39°33' W 000°06'.

Length 198 m; draft 6.7 m.

Type: Ship. MMSI: 309416000.

Date/timePositionNaut miles runAvg speedWind from/ knotsBaromVisibWave heightAir tempDewpointWater temp
2019-Oct-18 16:47N 39°33' W 000°06'414.5
2019-Oct-18 16:29N 39°29' W 000°10'811.5
2019-Oct-18 15:49N 39°27' W 000°19'1 2.4
2019-Oct-18 15:26N 39°27' W 000°20'0 0.0
2019-Oct-18 14:56N 39°27' W 000°20'0 0.0
2019-Oct-18 13:52N 39°27' W 000°20'0 0.0
2019-Oct-18 13:28N 39°27' W 000°20'0 0.0
2019-Oct-18 12:46N 39°27' W 000°20'0 0.0
2019-Oct-18 12:24N 39°27' W 000°20'0 0.0
2019-Oct-18 12:00N 39°27' W 000°20'0 0.0
2019-Oct-18 11:30N 39°27' W 000°20'0 0.0
2019-Oct-18 11:00N 39°27' W 000°20'0 0.0
2019-Oct-18 10:30N 39°27' W 000°20'0 0.0
2019-Oct-18 10:00N 39°27' W 000°20'0 0.0
2019-Oct-18 09:22N 39°27' W 000°20'0 0.0
2019-Oct-18 08:56N 39°27' W 000°20'0 0.0
2019-Oct-18 07:52N 39°27' W 000°20'0 0.0
2019-Oct-18 07:24N 39°27' W 000°20'0 0.0
2019-Oct-18 06:38N 39°27' W 000°20'0 0.0
2019-Oct-18 06:31N 39°27' W 000°20'0 0.0
2019-Oct-18 05:58N 39°27' W 000°20'0 0.0
2019-Oct-18 05:27N 39°27' W 000°20'0 0.0
2019-Oct-18 04:40N 39°27' W 000°20'0 0.5
2019-Oct-18 04:30N 39°27' W 000°19'3 5.7
2019-Oct-18 03:58N 39°25' W 000°17'12213.9
2019-Oct-17 19:08N 39°24' E 002°21'214.3
2019-Oct-17 18:59N 39°24' E 002°24'613.3
2019-Oct-17 18:30N 39°26' E 002°32'713.9
2019-Oct-17 18:00N 39°31' E 002°38'2 4.0
2019-Oct-17 17:30N 39°33' E 002°38'0 0.0
2019-Oct-17 16:59N 39°33' E 002°38'0 0.0
2019-Oct-17 16:28N 39°33' E 002°38'0 0.0
2019-Oct-17 15:55N 39°33' E 002°38'0 0.0
2019-Oct-17 15:28N 39°33' E 002°38'0 0.0
2019-Oct-17 14:58N 39°33' E 002°38'0 0.0
2019-Oct-17 14:30N 39°33' E 002°38'0 0.0
2019-Oct-17 14:00N 39°33' E 002°38'0 0.0
2019-Oct-17 13:30N 39°33' E 002°38'0 0.0
2019-Oct-17 13:00N 39°33' E 002°38'0 0.0
2019-Oct-17 12:30N 39°33' E 002°38'0 0.0
2019-Oct-17 12:00N 39°33' E 002°38'0 0.0
2019-Oct-17 11:29N 39°33' E 002°38'0 0.0
2019-Oct-17 10:59N 39°33' E 002°38'0 0.0
2019-Oct-17 10:30N 39°33' E 002°38'0 0.0
2019-Oct-17 10:00N 39°33' E 002°38'0 0.0
2019-Oct-17 09:30N 39°33' E 002°38'0 0.0
2019-Oct-17 09:00N 39°33' E 002°38'0 0.0
2019-Oct-17 08:30N 39°33' E 002°38'0 0.0
2019-Oct-17 08:00N 39°33' E 002°38'0 0.0
2019-Oct-17 07:30N 39°33' E 002°38'0 0.0
2019-Oct-17 07:00N 39°33' E 002°38'0 0.0
2019-Oct-17 06:29N 39°33' E 002°38'0 0.0
2019-Oct-17 05:59N 39°33' E 002°38'0 0.0
2019-Oct-17 05:29N 39°33' E 002°38'0 0.4
2019-Oct-17 05:00N 39°33' E 002°38'1 2.5
2019-Oct-17 04:30N 39°32' E 002°39'4 8.5
2019-Oct-17 04:00N 39°28' E 002°35'4 8.7
2019-Oct-17 03:30N 39°25' E 002°32'510.2
2019-Oct-17 03:00N 39°27' E 002°26'11113.7
2019-Oct-16 18:55N 41°15' E 002°54'613.5
2019-Oct-16 18:27N 41°21' E 002°56'713.5
2019-Oct-16 17:56N 41°28' E 002°59'1113.1
2019-Oct-16 17:04N 41°39' E 003°03'212.5
2019-Oct-16 16:55N 41°41' E 003°03'153 6.2
2019-Oct-15 16:11N 43°05' E 005°56'1 7.1
2019-Oct-15 16:00N 43°06' E 005°55'1 0.1
2019-Oct-15 06:18N 43°07' E 005°56'0 0.0
2019-Oct-15 05:51N 43°07' E 005°56'0 0.9
2019-Oct-15 05:30N 43°07' E 005°56'1 2.7
2019-Oct-15 04:58N 43°05' E 005°56'6914.2
2019-Oct-15 00:08N 42°24' E 007°11'215.1
2019-Oct-15 00:00N 42°24' E 007°14'715.1
2019-Oct-14 23:31N 42°20' E 007°22'815.1
2019-Oct-14 23:01N 42°16' E 007°31'510.4
2019-Oct-14 22:30N 42°14' E 007°38'4 8.7
2019-Oct-14 22:00N 42°12' E 007°43'4 8.3
2019-Oct-14 21:30N 42°09' E 007°47'4 8.0
2019-Oct-14 21:00N 42°07' E 007°51'611.1
2019-Oct-14 20:30N 42°04' E 007°58'714.4
2019-Oct-14 20:00N 42°00' E 008°06'2414.1
2019-Oct-14 18:19N 41°49' E 008°34'34 2.2
2019-Oct-14 02:31N 42°23' E 008°27'314.4
2019-Oct-14 02:19N 42°26' E 008°27'614.2
2019-Oct-14 01:52N 42°32' E 008°32'514.0
2019-Oct-14 01:30N 42°36' E 008°36'713.8
2019-Oct-14 01:00N 42°42' E 008°41'714.0
2019-Oct-14 00:29N 42°48' E 008°46'814.2
2019-Oct-13 23:55N 42°54' E 008°52'614.1
2019-Oct-13 23:28N 42°59' E 008°58'714.2
2019-Oct-13 22:59N 43°05' E 009°03'1411.3
2019-Oct-13 21:42N 43°15' E 009°17'2 8.0
2019-Oct-13 21:30N 43°16' E 009°19'4 7.9
2019-Oct-13 21:00N 43°18' E 009°23'4 8.0
2019-Oct-13 20:30N 43°21' E 009°28'4 8.1
2019-Oct-13 20:00N 43°23' E 009°32'612.6
2019-Oct-13 19:30N 43°27' E 009°39'714.4
2019-Oct-13 19:00N 43°31' E 009°48'714.2
2019-Oct-13 18:30N 43°31' E 009°57'714.6
2019-Oct-13 18:00N 43°31' E 010°07'612.5
2019-Oct-13 17:30N 43°32' E 010°16'2 3.1
2019-Oct-13 16:58N 43°33' E 010°18'0 0.0
2019-Oct-13 16:27N 43°33' E 010°18'0 0.0
2019-Oct-13 15:59N 43°33' E 010°18'0 0.0
2019-Oct-13 15:29N 43°33' E 010°18'0 0.0
2019-Oct-13 14:59N 43°33' E 010°18'0 0.0
2019-Oct-13 14:29N 43°33' E 010°18'0 0.0
2019-Oct-13 13:59N 43°33' E 010°18'0 0.0
2019-Oct-13 12:46N 43°33' E 010°18'0 0.0
2019-Oct-13 12:30N 43°33' E 010°18'0 0.0
2019-Oct-13 12:00N 43°33' E 010°18'0 0.0
2019-Oct-13 11:31N 43°33' E 010°18'0 0.0
2019-Oct-13 10:58N 43°33' E 010°18'0 0.0
2019-Oct-13 10:28N 43°33' E 010°18'0 0.0
2019-Oct-13 09:58N 43°33' E 010°18'0 0.0
2019-Oct-13 09:28N 43°33' E 010°18'0 0.0
2019-Oct-13 08:58N 43°33' E 010°18'0 0.0
2019-Oct-13 08:30N 43°33' E 010°18'0 0.0
2019-Oct-13 07:59N 43°33' E 010°18'0 0.0
2019-Oct-13 07:28N 43°33' E 010°18'0 0.0
2019-Oct-13 06:58N 43°33' E 010°18'0 0.0
2019-Oct-13 06:28N 43°33' E 010°18'0 0.0
2019-Oct-13 05:58N 43°33' E 010°18'0 0.0
2019-Oct-13 05:30N 43°33' E 010°18'0 0.0
2019-Oct-13 04:59N 43°33' E 010°18'0 0.0
2019-Oct-13 04:29N 43°33' E 010°18'0 0.3
2019-Oct-13 03:59N 43°33' E 010°18'2 4.4
2019-Oct-13 03:30N 43°31' E 010°16'611.6
2019-Oct-13 03:00N 43°26' E 010°12'815.4
2019-Oct-13 02:30N 43°19' E 010°16'815.4
2019-Oct-13 02:00N 43°12' E 010°19'4511.2
2019-Oct-12 21:58N 42°29' E 010°39'6 8.1
2019-Oct-12 21:12N 42°23' E 010°42'2 8.0
2019-Oct-12 21:00N 42°21' E 010°42'178 6.6
2019-Oct-11 17:53N 40°38' E 013°56'614.1
2019-Oct-11 17:29N 40°38' E 014°03'713.9
2019-Oct-11 17:00N 40°42' E 014°10'714.3
2019-Oct-11 16:30N 40°48' E 014°16'3 5.3
2019-Oct-11 16:00N 40°50' E 014°15'0 0.2
2019-Oct-11 15:29N 40°50' E 014°15'0 0.0
2019-Oct-11 14:59N 40°50' E 014°15'0 0.0
2019-Oct-11 14:29N 40°50' E 014°15'0 0.0
2019-Oct-11 13:59N 40°50' E 014°15'0 0.0
2019-Oct-11 13:29N 40°50' E 014°15'0 0.0
2019-Oct-11 12:59N 40°50' E 014°15'0 0.0
2019-Oct-11 12:29N 40°50' E 014°15'0 0.0
2019-Oct-11 11:59N 40°50' E 014°15'0 0.0
2019-Oct-11 11:29N 40°50' E 014°15'0 0.0
2019-Oct-11 10:59N 40°50' E 014°15'0 0.0
2019-Oct-11 10:26N 40°50' E 014°15'0 0.0
2019-Oct-11 09:59N 40°50' E 014°15'0 0.0
2019-Oct-11 09:29N 40°50' E 014°15'0 0.0
2019-Oct-11 08:59N 40°50' E 014°15'0 0.0
2019-Oct-11 08:29N 40°50' E 014°15'0 0.0
2019-Oct-11 07:59N 40°50' E 014°15'0 0.0
2019-Oct-11 07:29N 40°50' E 014°15'0 0.0
2019-Oct-11 06:59N 40°50' E 014°15'0 0.0
2019-Oct-11 06:20N 40°50' E 014°15'0 0.0
2019-Oct-11 05:59N 40°50' E 014°15'0 0.0
2019-Oct-11 05:29N 40°50' E 014°15'0 0.0
2019-Oct-11 04:59N 40°50' E 014°15'0 0.0
2019-Oct-11 04:31N 40°50' E 014°15'1 2.9
2019-Oct-11 04:01N 40°50' E 014°17'612.0
2019-Oct-11 03:30N 40°44' E 014°14'714.8
2019-Oct-11 03:00N 40°37' E 014°09'714.7
2019-Oct-11 02:30N 40°31' E 014°05'14614.4
2019-Oct-10 16:23N 38°22' E 012°36'  

Dump ship's entire track history